sensor_id;sensor_type;location;lat;lon;timestamp;pressure;altitude;pressure_sealevel;temperature;humidity
54816;BME280;40715;55.752;37.884;2022-08-25T00:01:46;100169.03;;;25.59;31.11
54816;BME280;40715;55.752;37.884;2022-08-25T00:04:15;100168.28;;;25.57;30.64
54816;BME280;40715;55.752;37.884;2022-08-25T00:06:43;100167.69;;;25.53;30.91
54816;BME280;40715;55.752;37.884;2022-08-25T00:09:12;100166.06;;;25.50;31.01
54816;BME280;40715;55.752;37.884;2022-08-25T00:11:40;100166.66;;;25.43;31.39
54816;BME280;40715;55.752;37.884;2022-08-25T00:14:20;100167.47;;;25.32;31.09
54816;BME280;40715;55.752;37.884;2022-08-25T00:16:47;100164.31;;;25.14;31.29
54816;BME280;40715;55.752;37.884;2022-08-25T00:19:18;100157.25;;;25.00;31.21
54816;BME280;40715;55.752;37.884;2022-08-25T00:21:46;100151.25;;;24.84;31.41
54816;BME280;40715;55.752;37.884;2022-08-25T00:24:15;100162.03;;;24.84;32.24
54816;BME280;40715;55.752;37.884;2022-08-25T00:26:44;100159.22;;;24.85;32.07
54816;BME280;40715;55.752;37.884;2022-08-25T00:29:15;100124.03;;;24.62;32.04
54816;BME280;40715;55.752;37.884;2022-08-25T00:31:42;100148.13;;;24.77;32.29
54816;BME280;40715;55.752;37.884;2022-08-25T00:34:13;100165.31;;;24.76;32.40
54816;BME280;40715;55.752;37.884;2022-08-25T00:36:41;100154.69;;;24.61;32.62
54816;BME280;40715;55.752;37.884;2022-08-25T00:39:10;100171.69;;;24.62;33.02
54816;BME280;40715;55.752;37.884;2022-08-25T00:41:40;100165.22;;;24.52;32.78
54816;BME280;40715;55.752;37.884;2022-08-25T00:44:10;100163.06;;;24.44;33.10
54816;BME280;40715;55.752;37.884;2022-08-25T00:46:44;100142.31;;;24.33;32.78
54816;BME280;40715;55.752;37.884;2022-08-25T00:49:19;100160.94;;;24.36;32.62
54816;BME280;40715;55.752;37.884;2022-08-25T00:54:51;100155.53;;;24.36;33.05
54816;BME280;40715;55.752;37.884;2022-08-25T00:57:34;100157.38;;;24.36;32.85
54816;BME280;40715;55.752;37.884;2022-08-25T01:00:19;100152.31;;;24.31;33.49
54816;BME280;40715;55.752;37.884;2022-08-25T01:02:47;100159.53;;;24.30;33.54
54816;BME280;40715;55.752;37.884;2022-08-25T01:05:15;100157.56;;;24.33;33.32
54816;BME280;40715;55.752;37.884;2022-08-25T01:07:43;100154.88;;;24.33;33.73
54816;BME280;40715;55.752;37.884;2022-08-25T01:10:12;100157.69;;;24.31;33.51
54816;BME280;40715;55.752;37.884;2022-08-25T01:12:40;100153.91;;;24.34;33.73
54816;BME280;40715;55.752;37.884;2022-08-25T01:15:09;100155.75;;;24.33;33.91
54816;BME280;40715;55.752;37.884;2022-08-25T01:17:46;100150.38;;;24.33;34.01
54816;BME280;40715;55.752;37.884;2022-08-25T01:20:14;100151.44;;;24.30;33.76
54816;BME280;40715;55.752;37.884;2022-08-25T01:22:41;100148.97;;;24.27;33.85
54816;BME280;40715;55.752;37.884;2022-08-25T01:27:59;100150.63;;;24.17;34.09
54816;BME280;40715;55.752;37.884;2022-08-25T01:30:26;100148.22;;;24.12;34.28
54816;BME280;40715;55.752;37.884;2022-08-25T01:32:53;100154.16;;;24.05;35.01
54816;BME280;40715;55.752;37.884;2022-08-25T01:35:21;100117.31;;;23.79;35.16
54816;BME280;40715;55.752;37.884;2022-08-25T01:37:47;100146.53;;;23.99;34.84
54816;BME280;40715;55.752;37.884;2022-08-25T01:40:15;100149.97;;;24.01;34.92
54816;BME280;40715;55.752;37.884;2022-08-25T01:45:33;100139.63;;;23.94;35.46
54816;BME280;40715;55.752;37.884;2022-08-25T01:48:00;100152.66;;;23.88;35.64
54816;BME280;40715;55.752;37.884;2022-08-25T01:50:28;100142.94;;;23.85;35.92
54816;BME280;40715;55.752;37.884;2022-08-25T01:53:18;100152.28;;;23.79;35.94
54816;BME280;40715;55.752;37.884;2022-08-25T01:55:47;100149.19;;;23.73;36.13
54816;BME280;40715;55.752;37.884;2022-08-25T01:58:25;100153.78;;;23.71;36.36
54816;BME280;40715;55.752;37.884;2022-08-25T02:00:55;100150.97;;;23.72;36.25
54816;BME280;40715;55.752;37.884;2022-08-25T02:03:24;100155.31;;;23.75;35.84
54816;BME280;40715;55.752;37.884;2022-08-25T02:05:52;100154.97;;;23.79;36.28
54816;BME280;40715;55.752;37.884;2022-08-25T02:08:19;100155.31;;;23.75;36.50
54816;BME280;40715;55.752;37.884;2022-08-25T02:10:49;100160.13;;;23.70;37.23
54816;BME280;40715;55.752;37.884;2022-08-25T02:13:16;100162.28;;;23.65;37.24
54816;BME280;40715;55.752;37.884;2022-08-25T02:15:53;100150.34;;;23.56;38.00
54816;BME280;40715;55.752;37.884;2022-08-25T02:18:22;100155.91;;;23.53;37.79
54816;BME280;40715;55.752;37.884;2022-08-25T02:20:49;100155.16;;;23.51;37.73
54816;BME280;40715;55.752;37.884;2022-08-25T02:23:16;100144.03;;;23.42;38.00
54816;BME280;40715;55.752;37.884;2022-08-25T02:25:43;100156.22;;;23.48;37.61
54816;BME280;40715;55.752;37.884;2022-08-25T02:28:10;100150.09;;;23.46;37.73
54816;BME280;40715;55.752;37.884;2022-08-25T02:30:39;100151.78;;;23.47;38.17
54816;BME280;40715;55.752;37.884;2022-08-25T02:33:07;100135.53;;;23.36;38.42
54816;BME280;40715;55.752;37.884;2022-08-25T02:35:34;100151.91;;;23.46;38.51
54816;BME280;40715;55.752;37.884;2022-08-25T02:38:02;100116.13;;;23.18;38.22
54816;BME280;40715;55.752;37.884;2022-08-25T02:40:29;100155.47;;;23.46;38.40
54816;BME280;40715;55.752;37.884;2022-08-25T02:42:56;100154.19;;;23.52;38.52
54816;BME280;40715;55.752;37.884;2022-08-25T02:45:23;100142.16;;;23.57;37.93
54816;BME280;40715;55.752;37.884;2022-08-25T02:47:50;100149.19;;;23.73;37.91
54816;BME280;40715;55.752;37.884;2022-08-25T02:50:18;100153.16;;;23.80;37.72
54816;BME280;40715;55.752;37.884;2022-08-25T02:52:46;100154.66;;;23.84;38.06
54816;BME280;40715;55.752;37.884;2022-08-25T02:55:16;100156.09;;;23.90;37.96
54816;BME280;40715;55.752;37.884;2022-08-25T02:57:44;100145.13;;;23.93;38.22
54816;BME280;40715;55.752;37.884;2022-08-25T03:00:13;100148.13;;;24.01;38.26
54816;BME280;40715;55.752;37.884;2022-08-25T03:02:41;100153.38;;;24.16;37.76
54816;BME280;40715;55.752;37.884;2022-08-25T03:05:10;100154.38;;;24.27;37.69
54816;BME280;40715;55.752;37.884;2022-08-25T03:07:37;100149.59;;;24.44;37.51
54816;BME280;40715;55.752;37.884;2022-08-25T03:10:13;100147.88;;;24.69;37.20
54816;BME280;40715;55.752;37.884;2022-08-25T03:12:41;100147.34;;;24.88;36.77
54816;BME280;40715;55.752;37.884;2022-08-25T03:15:09;100151.91;;;25.11;36.41
54816;BME280;40715;55.752;37.884;2022-08-25T03:17:38;100142.97;;;25.35;35.98
54816;BME280;40715;55.752;37.884;2022-08-25T03:20:05;100147.69;;;25.56;35.26
54816;BME280;40715;55.752;37.884;2022-08-25T03:22:32;100153.75;;;25.82;35.11
54816;BME280;40715;55.752;37.884;2022-08-25T03:24:59;100153.13;;;26.14;34.89
54816;BME280;40715;55.752;37.884;2022-08-25T03:27:49;100158.16;;;26.52;34.21
54816;BME280;40715;55.752;37.884;2022-08-25T03:30:18;100145.56;;;26.97;33.47
54816;BME280;40715;55.752;37.884;2022-08-25T03:32:45;100151.03;;;27.50;32.89
54816;BME280;40715;55.752;37.884;2022-08-25T03:35:13;100147.03;;;28.08;32.36
54816;BME280;40715;55.752;37.884;2022-08-25T03:37:40;100153.31;;;28.70;31.45
54816;BME280;40715;55.752;37.884;2022-08-25T03:40:10;100150.38;;;29.22;30.62
54816;BME280;40715;55.752;37.884;2022-08-25T03:42:40;100149.09;;;29.85;30.02
54816;BME280;40715;55.752;37.884;2022-08-25T03:45:12;100150.28;;;30.58;29.25
54816;BME280;40715;55.752;37.884;2022-08-25T03:47:39;100145.22;;;31.19;28.58
54816;BME280;40715;55.752;37.884;2022-08-25T03:50:09;100146.63;;;31.85;27.57
54816;BME280;40715;55.752;37.884;2022-08-25T03:52:37;100124.66;;;32.47;27.33
54816;BME280;40715;55.752;37.884;2022-08-25T03:55:10;100148.81;;;33.36;25.92
54816;BME280;40715;55.752;37.884;2022-08-25T03:57:37;100149.44;;;34.12;25.13
54816;BME280;40715;55.752;37.884;2022-08-25T04:00:07;100149.06;;;34.80;24.20
54816;BME280;40715;55.752;37.884;2022-08-25T04:02:35;100149.56;;;35.53;23.65
54816;BME280;40715;55.752;37.884;2022-08-25T04:05:02;100146.88;;;36.21;22.58
54816;BME280;40715;55.752;37.884;2022-08-25T04:07:29;100143.34;;;36.87;21.92
54816;BME280;40715;55.752;37.884;2022-08-25T04:09:56;100148.63;;;37.46;22.00
54816;BME280;40715;55.752;37.884;2022-08-25T04:12:23;100159.47;;;38.05;20.68
54816;BME280;40715;55.752;37.884;2022-08-25T04:14:50;100133.94;;;38.53;20.32
54816;BME280;40715;55.752;37.884;2022-08-25T04:17:17;100155.16;;;39.14;19.72
54816;BME280;40715;55.752;37.884;2022-08-25T04:19:44;100140.34;;;39.62;19.10
54816;BME280;40715;55.752;37.884;2022-08-25T04:22:11;100144.34;;;40.13;18.52
54816;BME280;40715;55.752;37.884;2022-08-25T04:24:39;100142.28;;;40.60;18.00
54816;BME280;40715;55.752;37.884;2022-08-25T04:27:06;100140.59;;;41.04;17.65
54816;BME280;40715;55.752;37.884;2022-08-25T04:29:33;100135.44;;;41.47;16.86
54816;BME280;40715;55.752;37.884;2022-08-25T04:32:00;100141.34;;;42.01;16.55
54816;BME280;40715;55.752;37.884;2022-08-25T04:34:28;100138.88;;;42.48;15.81
54816;BME280;40715;55.752;37.884;2022-08-25T04:37:01;100149.28;;;43.02;15.52
54816;BME280;40715;55.752;37.884;2022-08-25T04:39:29;100138.09;;;43.51;15.09
54816;BME280;40715;55.752;37.884;2022-08-25T04:41:56;100146.44;;;43.98;14.70
54816;BME280;40715;55.752;37.884;2022-08-25T04:44:26;100130.22;;;44.42;14.15
54816;BME280;40715;55.752;37.884;2022-08-25T04:46:53;100146.00;;;44.94;14.10
54816;BME280;40715;55.752;37.884;2022-08-25T04:49:20;100143.28;;;45.28;13.38
54816;BME280;40715;55.752;37.884;2022-08-25T04:51:47;100142.97;;;45.76;13.02
54816;BME280;40715;55.752;37.884;2022-08-25T04:54:15;100143.41;;;46.24;12.30
54816;BME280;40715;55.752;37.884;2022-08-25T04:56:43;100136.16;;;46.67;11.98
54816;BME280;40715;55.752;37.884;2022-08-25T04:59:12;100119.25;;;47.01;11.83
54816;BME280;40715;55.752;37.884;2022-08-25T05:01:40;100145.34;;;47.49;11.35
54816;BME280;40715;55.752;37.884;2022-08-25T05:04:10;100136.31;;;47.75;11.19
54816;BME280;40715;55.752;37.884;2022-08-25T05:06:40;100141.41;;;48.36;10.63
54816;BME280;40715;55.752;37.884;2022-08-25T05:09:09;100146.59;;;48.80;10.28
54816;BME280;40715;55.752;37.884;2022-08-25T05:11:36;100132.69;;;49.16;9.90
54816;BME280;40715;55.752;37.884;2022-08-25T05:14:04;100142.78;;;49.64;10.24
54816;BME280;40715;55.752;37.884;2022-08-25T05:16:31;100142.16;;;50.08;9.41
54816;BME280;40715;55.752;37.884;2022-08-25T05:18:58;100132.47;;;50.50;9.45
54816;BME280;40715;55.752;37.884;2022-08-25T05:21:26;100140.31;;;50.98;8.94
54816;BME280;40715;55.752;37.884;2022-08-25T05:23:58;100138.59;;;51.42;8.54
54816;BME280;40715;55.752;37.884;2022-08-25T05:26:27;100138.72;;;51.85;8.30
54816;BME280;40715;55.752;37.884;2022-08-25T05:28:57;100145.75;;;52.12;8.27
54816;BME280;40715;55.752;37.884;2022-08-25T05:31:26;100141.31;;;52.30;7.80
54816;BME280;40715;55.752;37.884;2022-08-25T05:33:54;100144.63;;;52.56;7.83
54816;BME280;40715;55.752;37.884;2022-08-25T05:36:22;100143.50;;;52.76;7.68
54816;BME280;40715;55.752;37.884;2022-08-25T05:38:50;100148.16;;;53.05;7.90
54816;BME280;40715;55.752;37.884;2022-08-25T05:41:20;100147.88;;;53.40;7.02
54816;BME280;40715;55.752;37.884;2022-08-25T05:43:48;100151.81;;;53.72;7.05
54816;BME280;40715;55.752;37.884;2022-08-25T05:46:17;100142.22;;;54.00;6.77
54816;BME280;40715;55.752;37.884;2022-08-25T05:48:44;100137.97;;;54.17;7.03
54816;BME280;40715;55.752;37.884;2022-08-25T05:51:12;100143.69;;;54.40;7.06
54816;BME280;40715;55.752;37.884;2022-08-25T05:53:43;100140.78;;;54.81;6.89
54816;BME280;40715;55.752;37.884;2022-08-25T05:56:11;100138.56;;;55.15;6.35
54816;BME280;40715;55.752;37.884;2022-08-25T05:58:41;100142.28;;;55.47;6.63
54816;BME280;40715;55.752;37.884;2022-08-25T06:01:09;100140.75;;;55.72;6.55
54816;BME280;40715;55.752;37.884;2022-08-25T06:03:54;100136.59;;;56.18;6.07
54816;BME280;40715;55.752;37.884;2022-08-25T06:06:22;100139.88;;;56.61;5.69
54816;BME280;40715;55.752;37.884;2022-08-25T06:08:50;100139.72;;;56.92;5.75
54816;BME280;40715;55.752;37.884;2022-08-25T06:11:17;100136.72;;;56.97;5.43
54816;BME280;40715;55.752;37.884;2022-08-25T06:13:45;100139.69;;;57.10;5.42
54816;BME280;40715;55.752;37.884;2022-08-25T06:16:12;100136.84;;;57.18;5.64
54816;BME280;40715;55.752;37.884;2022-08-25T06:18:39;100141.63;;;57.44;5.31
54816;BME280;40715;55.752;37.884;2022-08-25T06:21:08;100149.38;;;57.73;5.10
54816;BME280;40715;55.752;37.884;2022-08-25T06:23:36;100139.06;;;58.08;4.77
54816;BME280;40715;55.752;37.884;2022-08-25T06:26:04;100147.94;;;58.57;4.79
54816;BME280;40715;55.752;37.884;2022-08-25T06:28:31;100153.69;;;58.90;4.71
54816;BME280;40715;55.752;37.884;2022-08-25T06:31:00;100149.56;;;59.34;3.97
54816;BME280;40715;55.752;37.884;2022-08-25T06:33:27;100148.22;;;59.65;4.50
54816;BME280;40715;55.752;37.884;2022-08-25T06:35:55;100154.56;;;59.83;3.81
54816;BME280;40715;55.752;37.884;2022-08-25T06:38:23;100149.81;;;60.24;3.56
54816;BME280;40715;55.752;37.884;2022-08-25T06:40:51;100155.00;;;60.75;3.98
54816;BME280;40715;55.752;37.884;2022-08-25T06:43:19;100149.25;;;61.28;3.26
54816;BME280;40715;55.752;37.884;2022-08-25T06:45:46;100145.66;;;61.95;3.39
54816;BME280;40715;55.752;37.884;2022-08-25T06:48:14;100142.81;;;62.46;3.10
54816;BME280;40715;55.752;37.884;2022-08-25T06:50:42;100155.91;;;62.87;2.77
54816;BME280;40715;55.752;37.884;2022-08-25T06:53:10;100146.53;;;63.09;2.55
54816;BME280;40715;55.752;37.884;2022-08-25T06:55:37;100143.94;;;63.70;2.27
54816;BME280;40715;55.752;37.884;2022-08-25T06:58:04;100145.84;;;64.09;2.36
54816;BME280;40715;55.752;37.884;2022-08-25T07:00:32;100146.84;;;64.24;1.76
54816;BME280;40715;55.752;37.884;2022-08-25T07:02:59;100146.59;;;64.32;1.95
54816;BME280;40715;55.752;37.884;2022-08-25T07:05:28;100134.03;;;64.44;1.79
54816;BME280;40715;55.752;37.884;2022-08-25T07:08:10;100145.47;;;65.09;1.50
54816;BME280;40715;55.752;37.884;2022-08-25T07:10:37;100140.34;;;65.70;1.47
54816;BME280;40715;55.752;37.884;2022-08-25T07:13:04;100145.56;;;66.16;0.81
54816;BME280;40715;55.752;37.884;2022-08-25T07:15:37;100147.00;;;66.55;0.73
54816;BME280;40715;55.752;37.884;2022-08-25T07:18:05;100146.72;;;66.85;0.56
54816;BME280;40715;55.752;37.884;2022-08-25T07:20:34;100141.47;;;67.56;0.49
54816;BME280;40715;55.752;37.884;2022-08-25T07:23:01;100145.94;;;68.08;0.23
54816;BME280;40715;55.752;37.884;2022-08-25T07:25:28;100144.94;;;68.54;0.00
54816;BME280;40715;55.752;37.884;2022-08-25T07:27:55;100130.66;;;69.10;0.00
54816;BME280;40715;55.752;37.884;2022-08-25T07:30:24;100137.88;;;69.78;0.00
54816;BME280;40715;55.752;37.884;2022-08-25T07:32:51;100138.38;;;70.11;0.00
54816;BME280;40715;55.752;37.884;2022-08-25T07:35:21;100123.91;;;71.28;0.00
54816;BME280;40715;55.752;37.884;2022-08-25T07:37:54;100127.81;;;71.41;0.00
54816;BME280;40715;55.752;37.884;2022-08-25T07:40:28;100114.22;;;70.60;0.00
54816;BME280;40715;55.752;37.884;2022-08-25T07:42:57;100116.66;;;69.99;0.00
54816;BME280;40715;55.752;37.884;2022-08-25T07:45:28;100117.34;;;69.72;0.00
54816;BME280;40715;55.752;37.884;2022-08-25T07:47:57;100110.72;;;69.76;0.00
54816;BME280;40715;55.752;37.884;2022-08-25T07:50:26;100110.28;;;69.32;0.00
54816;BME280;40715;55.752;37.884;2022-08-25T07:52:53;100102.41;;;68.87;0.00
54816;BME280;40715;55.752;37.884;2022-08-25T07:55:22;100108.00;;;69.12;0.00
54816;BME280;40715;55.752;37.884;2022-08-25T07:57:50;100112.50;;;69.59;0.00
54816;BME280;40715;55.752;37.884;2022-08-25T08:00:21;100103.56;;;69.91;0.00
54816;BME280;40715;55.752;37.884;2022-08-25T08:02:49;100107.75;;;69.79;0.00
54816;BME280;40715;55.752;37.884;2022-08-25T08:05:16;100097.69;;;69.60;0.00
54816;BME280;40715;55.752;37.884;2022-08-25T08:07:43;100099.09;;;69.41;0.00
54816;BME280;40715;55.752;37.884;2022-08-25T08:10:12;100097.09;;;69.76;0.00
54816;BME280;40715;55.752;37.884;2022-08-25T08:12:59;100098.34;;;70.44;0.00
54816;BME280;40715;55.752;37.884;2022-08-25T08:15:27;100102.47;;;71.25;0.00
54816;BME280;40715;55.752;37.884;2022-08-25T08:17:58;100087.44;;;71.57;0.00
54816;BME280;40715;55.752;37.884;2022-08-25T08:20:26;100094.13;;;72.35;0.00
54816;BME280;40715;55.752;37.884;2022-08-25T08:22:53;100100.84;;;73.34;0.00
54816;BME280;40715;55.752;37.884;2022-08-25T08:25:20;100093.34;;;73.66;0.00
54816;BME280;40715;55.752;37.884;2022-08-25T08:27:51;100092.00;;;74.26;0.00
54816;BME280;40715;55.752;37.884;2022-08-25T08:30:21;100088.63;;;74.53;0.00
54816;BME280;40715;55.752;37.884;2022-08-25T08:32:49;100088.16;;;74.93;0.00
54816;BME280;40715;55.752;37.884;2022-08-25T08:35:34;100087.59;;;74.86;0.00
54816;BME280;40715;55.752;37.884;2022-08-25T08:38:02;100076.81;;;74.35;0.00
54816;BME280;40715;55.752;37.884;2022-08-25T08:40:30;100070.50;;;74.23;0.00
54816;BME280;40715;55.752;37.884;2022-08-25T08:43:05;100075.75;;;74.41;0.00
54816;BME280;40715;55.752;37.884;2022-08-25T08:45:51;100082.03;;;74.53;0.00
54816;BME280;40715;55.752;37.884;2022-08-25T08:48:43;100072.25;;;74.34;0.00
54816;BME280;40715;55.752;37.884;2022-08-25T08:51:23;100065.69;;;74.04;0.00
54816;BME280;40715;55.752;37.884;2022-08-25T08:56:30;100059.25;;;74.77;0.00
54816;BME280;40715;55.752;37.884;2022-08-25T08:59:08;100052.94;;;75.61;0.00
54816;BME280;40715;55.752;37.884;2022-08-25T09:01:50;100064.38;;;76.91;0.00
54816;BME280;40715;55.752;37.884;2022-08-25T09:04:44;100064.44;;;77.28;0.00
54816;BME280;40715;55.752;37.884;2022-08-25T09:07:16;100064.56;;;77.24;0.00
54816;BME280;40715;55.752;37.884;2022-08-25T09:09:44;100049.78;;;77.74;0.00
54816;BME280;40715;55.752;37.884;2022-08-25T09:15:27;100049.09;;;77.98;0.00
54816;BME280;40715;55.752;37.884;2022-08-25T09:19:18;100047.44;;;78.06;0.00
54816;BME280;40715;55.752;37.884;2022-08-25T09:26:29;100037.50;;;78.13;0.00
54816;BME280;40715;55.752;37.884;2022-08-25T09:29:06;100041.91;;;78.42;0.00
54816;BME280;40715;55.752;37.884;2022-08-25T09:31:42;100032.97;;;76.95;0.00
54816;BME280;40715;55.752;37.884;2022-08-25T09:34:19;100017.19;;;74.82;0.00
54816;BME280;40715;55.752;37.884;2022-08-25T09:36:47;100000.13;;;71.83;0.00
54816;BME280;40715;55.752;37.884;2022-08-25T09:39:21;99983.56;;;68.72;0.00
54816;BME280;40715;55.752;37.884;2022-08-25T09:44:26;99957.63;;;60.99;0.79
54816;BME280;40715;55.752;37.884;2022-08-25T09:49:35;99967.78;;;54.49;2.99
54816;BME280;40715;55.752;37.884;2022-08-25T10:00:29;99949.44;;;47.47;6.00
54816;BME280;40715;55.752;37.884;2022-08-25T10:03:19;99955.56;;;46.42;6.68
54816;BME280;40715;55.752;37.884;2022-08-25T10:08:35;99937.16;;;44.91;7.48
54816;BME280;40715;55.752;37.884;2022-08-25T10:11:08;99934.84;;;44.37;7.66
54816;BME280;40715;55.752;37.884;2022-08-25T10:13:44;99913.84;;;43.71;8.38
54816;BME280;40715;55.752;37.884;2022-08-25T10:16:25;99946.84;;;43.32;8.59
54816;BME280;40715;55.752;37.884;2022-08-25T10:19:27;99929.47;;;42.89;8.58
54816;BME280;40715;55.752;37.884;2022-08-25T10:22:06;99930.38;;;42.48;8.77
54816;BME280;40715;55.752;37.884;2022-08-25T10:24:34;99924.91;;;42.29;9.22
54816;BME280;40715;55.752;37.884;2022-08-25T10:32:08;99921.53;;;41.60;9.60
54816;BME280;40715;55.752;37.884;2022-08-25T10:34:55;99930.00;;;41.21;9.63
54816;BME280;40715;55.752;37.884;2022-08-25T10:37:46;99904.28;;;40.45;10.29
54816;BME280;40715;55.752;37.884;2022-08-25T10:40:28;99916.88;;;39.95;10.45
54816;BME280;40715;55.752;37.884;2022-08-25T10:46:16;99913.25;;;39.43;10.58
54816;BME280;40715;55.752;37.884;2022-08-25T10:57:01;99909.16;;;38.05;11.78
54816;BME280;40715;55.752;37.884;2022-08-25T11:02:12;99901.16;;;37.61;12.17
54816;BME280;40715;55.752;37.884;2022-08-25T11:04:57;99900.72;;;37.58;11.89
54816;BME280;40715;55.752;37.884;2022-08-25T11:07:36;99902.41;;;37.59;11.93
54816;BME280;40715;55.752;37.884;2022-08-25T11:10:11;99895.63;;;37.55;12.66
54816;BME280;40715;55.752;37.884;2022-08-25T11:12:43;99897.03;;;37.44;12.37
54816;BME280;40715;55.752;37.884;2022-08-25T11:15:33;99888.88;;;37.22;12.57
54816;BME280;40715;55.752;37.884;2022-08-25T11:18:06;99885.31;;;36.93;12.76
54816;BME280;40715;55.752;37.884;2022-08-25T11:23:48;99877.16;;;37.07;13.07
54816;BME280;40715;55.752;37.884;2022-08-25T11:26:19;99870.09;;;37.26;13.35
54816;BME280;40715;55.752;37.884;2022-08-25T11:29:11;99869.34;;;37.39;12.81
54816;BME280;40715;55.752;37.884;2022-08-25T11:31:43;99876.34;;;37.48;13.20
54816;BME280;40715;55.752;37.884;2022-08-25T11:34:14;99864.81;;;37.24;13.46
54816;BME280;40715;55.752;37.884;2022-08-25T11:36:49;99861.44;;;36.94;13.58
54816;BME280;40715;55.752;37.884;2022-08-25T11:39:54;99862.09;;;36.96;13.42
54816;BME280;40715;55.752;37.884;2022-08-25T11:42:55;99865.69;;;36.96;13.58
54816;BME280;40715;55.752;37.884;2022-08-25T11:48:38;99847.44;;;36.82;13.84
54816;BME280;40715;55.752;37.884;2022-08-25T11:51:30;99858.72;;;36.72;13.78
54816;BME280;40715;55.752;37.884;2022-08-25T11:54:23;99857.19;;;36.41;13.92
54816;BME280;40715;55.752;37.884;2022-08-25T11:57:01;99852.38;;;36.00;14.15
54816;BME280;40715;55.752;37.884;2022-08-25T12:02:36;99851.16;;;35.73;14.58
54816;BME280;40715;55.752;37.884;2022-08-25T12:07:58;99847.56;;;35.51;14.73
54816;BME280;40715;55.752;37.884;2022-08-25T12:10:57;99838.22;;;35.45;14.74
54816;BME280;40715;55.752;37.884;2022-08-25T12:13:43;99837.91;;;35.40;14.84
54816;BME280;40715;55.752;37.884;2022-08-25T12:16:39;99838.88;;;35.32;14.80
54816;BME280;40715;55.752;37.884;2022-08-25T12:30:22;99820.63;;;34.80;15.26
54816;BME280;40715;55.752;37.884;2022-08-25T12:35:48;99816.91;;;34.72;15.45
54816;BME280;40715;55.752;37.884;2022-08-25T12:40:57;99806.28;;;34.78;15.46
54816;BME280;40715;55.752;37.884;2022-08-25T12:43:35;99815.53;;;34.91;15.45
54816;BME280;40715;55.752;37.884;2022-08-25T12:52:15;99807.06;;;35.31;15.24
54816;BME280;40715;55.752;37.884;2022-08-25T12:54:48;99785.03;;;35.24;15.27
54816;BME280;40715;55.752;37.884;2022-08-25T13:00:25;99800.78;;;35.52;15.00
54816;BME280;40715;55.752;37.884;2022-08-25T13:11:40;99797.13;;;36.25;14.72
54816;BME280;40715;55.752;37.884;2022-08-25T13:14:16;99796.81;;;36.35;14.75
54816;BME280;40715;55.752;37.884;2022-08-25T13:16:56;99796.28;;;36.53;14.33
54816;BME280;40715;55.752;37.884;2022-08-25T13:19:25;99788.78;;;36.61;14.49
54816;BME280;40715;55.752;37.884;2022-08-25T13:21:53;99787.28;;;36.59;14.60
54816;BME280;40715;55.752;37.884;2022-08-25T13:24:26;99787.63;;;36.49;14.70
54816;BME280;40715;55.752;37.884;2022-08-25T13:26:56;99784.19;;;36.40;14.71
54816;BME280;40715;55.752;37.884;2022-08-25T13:29:30;99782.38;;;36.26;14.82
54816;BME280;40715;55.752;37.884;2022-08-25T13:32:05;99782.00;;;36.07;14.98
54816;BME280;40715;55.752;37.884;2022-08-25T13:34:40;99786.69;;;35.92;14.84
54816;BME280;40715;55.752;37.884;2022-08-25T13:37:15;99774.50;;;35.80;15.17
54816;BME280;40715;55.752;37.884;2022-08-25T13:42:48;99772.78;;;35.35;15.64
54816;BME280;40715;55.752;37.884;2022-08-25T13:45:24;99771.72;;;35.21;15.97
54816;BME280;40715;55.752;37.884;2022-08-25T13:47:52;99768.03;;;35.14;15.89
54816;BME280;40715;55.752;37.884;2022-08-25T13:50:36;99766.28;;;35.06;15.92
54816;BME280;40715;55.752;37.884;2022-08-25T13:53:07;99760.13;;;35.04;16.15
54816;BME280;40715;55.752;37.884;2022-08-25T13:55:48;99754.19;;;35.01;16.03
54816;BME280;40715;55.752;37.884;2022-08-25T13:58:25;99762.31;;;34.94;16.18
54816;BME280;40715;55.752;37.884;2022-08-25T14:01:23;99751.38;;;34.94;15.87
54816;BME280;40715;55.752;37.884;2022-08-25T14:04:31;99750.03;;;34.90;16.11
54816;BME280;40715;55.752;37.884;2022-08-25T14:09:54;99739.56;;;34.94;15.73
54816;BME280;40715;55.752;37.884;2022-08-25T14:15:26;99749.78;;;34.85;15.85
54816;BME280;40715;55.752;37.884;2022-08-25T14:18:04;99740.94;;;34.74;15.73
54816;BME280;40715;55.752;37.884;2022-08-25T14:20:34;99734.47;;;34.61;16.00
54816;BME280;40715;55.752;37.884;2022-08-25T14:25:31;99728.03;;;34.38;16.04
54816;BME280;40715;55.752;37.884;2022-08-25T14:28:01;99743.47;;;34.31;16.23
54816;BME280;40715;55.752;37.884;2022-08-25T14:30:34;99728.63;;;34.11;16.26
54816;BME280;40715;55.752;37.884;2022-08-25T14:33:03;99735.75;;;34.12;16.80
54816;BME280;40715;55.752;37.884;2022-08-25T14:35:30;99700.91;;;33.91;16.38
54816;BME280;40715;55.752;37.884;2022-08-25T14:37:57;99730.53;;;34.02;16.79
54816;BME280;40715;55.752;37.884;2022-08-25T14:40:24;99731.97;;;33.98;16.65
54816;BME280;40715;55.752;37.884;2022-08-25T14:42:55;99728.75;;;33.94;16.71
54816;BME280;40715;55.752;37.884;2022-08-25T14:45:22;99726.44;;;33.83;17.00
54816;BME280;40715;55.752;37.884;2022-08-25T14:47:49;99725.81;;;33.72;17.58
54816;BME280;40715;55.752;37.884;2022-08-25T14:50:16;99726.91;;;33.63;17.30
54816;BME280;40715;55.752;37.884;2022-08-25T14:52:45;99727.44;;;33.59;17.73
54816;BME280;40715;55.752;37.884;2022-08-25T14:55:13;99727.50;;;33.50;17.45
54816;BME280;40715;55.752;37.884;2022-08-25T14:57:42;99720.22;;;33.43;17.69
54816;BME280;40715;55.752;37.884;2022-08-25T15:00:10;99714.25;;;33.39;18.08
54816;BME280;40715;55.752;37.884;2022-08-25T15:02:40;99719.44;;;33.34;18.11